createdAt,value
2019-05-19T00:02:32.435Z,22.03
2019-05-19T00:05:06.251Z,22.80
2019-05-19T00:07:38.963Z,23.30
2019-05-19T00:10:11.941Z,20.60
2019-05-19T00:12:44.565Z,22.70
2019-05-19T00:15:17.342Z,22.97
2019-05-19T00:17:50.997Z,22.00
2019-05-19T00:20:23.572Z,22.63
2019-05-19T00:22:56.375Z,22.67
2019-05-19T00:25:28.998Z,21.63
2019-05-19T00:28:01.967Z,22.70
2019-05-19T00:30:34.926Z,21.60
2019-05-19T00:33:07.465Z,21.77
2019-05-19T00:35:40.055Z,21.53
2019-05-19T00:38:13.211Z,20.30
2019-05-19T00:40:45.813Z,21.80
2019-05-19T00:43:18.510Z,22.93
2019-05-19T00:45:51.465Z,24.00
2019-05-19T00:48:24.180Z,22.80
2019-05-19T00:50:56.720Z,23.50
2019-05-19T00:53:29.495Z,21.90
2019-05-19T00:56:03.195Z,22.83
2019-05-19T00:58:36.630Z,25.23
2019-05-19T01:01:09.225Z,22.10
2019-05-19T01:03:41.745Z,23.83
2019-05-19T01:06:14.470Z,22.73
2019-05-19T01:08:47.111Z,24.73
2019-05-19T01:11:19.720Z,23.60
2019-05-19T01:13:52.396Z,23.23
2019-05-19T01:16:25.172Z,23.17
2019-05-19T01:18:58.045Z,24.23
2019-05-19T01:21:31.705Z,23.47
2019-05-19T01:24:04.411Z,23.27
2019-05-19T01:26:36.991Z,23.40
2019-05-19T01:29:10.160Z,20.67
2019-05-19T01:31:43.000Z,21.80
2019-05-19T01:34:15.601Z,20.90
2019-05-19T01:36:48.152Z,21.67
2019-05-19T01:39:20.767Z,23.37
2019-05-19T01:41:53.418Z,23.40
2019-05-19T01:44:26.115Z,20.77
2019-05-19T01:46:58.936Z,23.67
2019-05-19T01:49:31.520Z,21.63
2019-05-19T01:52:04.230Z,22.57
2019-05-19T01:54:37.035Z,21.97
2019-05-19T01:57:09.663Z,21.80
2019-05-19T01:59:42.196Z,23.80
2019-05-19T02:02:14.921Z,24.23
2019-05-19T02:04:47.550Z,23.13
2019-05-19T02:07:20.251Z,25.70
2019-05-19T02:09:53.180Z,24.10
2019-05-19T02:12:25.905Z,25.10
2019-05-19T02:14:58.623Z,24.97
2019-05-19T02:17:31.498Z,25.47
2019-05-19T02:20:05.480Z,25.47
2019-05-19T02:22:38.256Z,26.07
2019-05-19T02:25:12.086Z,25.17
2019-05-19T02:27:44.863Z,26.00
2019-05-19T02:30:17.663Z,25.40
2019-05-19T02:32:50.291Z,27.17
2019-05-19T02:35:22.914Z,27.23
2019-05-19T02:37:55.599Z,24.87
2019-05-19T02:40:28.926Z,24.37
2019-05-19T02:43:03.037Z,25.07
2019-05-19T02:45:37.179Z,24.10
2019-05-19T02:48:12.055Z,23.97
2019-05-19T02:50:52.305Z,25.20
2019-05-19T02:53:21.527Z,24.30
2019-05-19T02:55:55.405Z,23.77
2019-05-19T02:58:28.392Z,24.67
2019-05-19T03:01:01.160Z,24.50
2019-05-19T03:03:33.710Z,23.13
2019-05-19T03:06:06.562Z,24.80
2019-05-19T03:08:39.260Z,25.90
2019-05-19T03:11:11.920Z,26.27
2019-05-19T03:13:45.634Z,28.20
2019-05-19T03:16:18.405Z,25.30
2019-05-19T03:18:51.316Z,27.17
2019-05-19T03:21:23.863Z,26.60
2019-05-19T03:23:56.651Z,26.30
2019-05-19T03:26:29.307Z,27.67
2019-05-19T03:29:02.100Z,26.37
2019-05-19T03:31:51.777Z,26.33
2019-05-19T03:34:25.967Z,27.07
2019-05-19T03:36:58.670Z,27.60
2019-05-19T03:39:31.474Z,27.63
2019-05-19T03:42:04.078Z,27.60
2019-05-19T03:44:37.050Z,26.57
2019-05-19T03:47:09.988Z,27.60
2019-05-19T03:49:42.760Z,27.03
2019-05-19T03:52:15.353Z,27.07
2019-05-19T03:54:48.127Z,25.70
2019-05-19T03:57:20.887Z,25.93
2019-05-19T03:59:53.391Z,26.87
2019-05-19T04:02:26.187Z,26.40
2019-05-19T04:04:58.777Z,26.97
2019-05-19T04:07:31.323Z,24.47
2019-05-19T04:10:04.071Z,27.40
2019-05-19T04:12:36.882Z,25.10
2019-05-19T04:15:10.077Z,26.37
2019-05-19T04:17:43.776Z,25.20
2019-05-19T04:20:16.721Z,24.43
2019-05-19T04:22:49.477Z,23.63
2019-05-19T04:25:22.018Z,23.33
2019-05-19T04:27:55.012Z,23.60
2019-05-19T04:30:27.715Z,24.10
2019-05-19T04:33:00.275Z,23.27
2019-05-19T04:35:34.010Z,23.80
2019-05-19T04:38:06.656Z,23.03
2019-05-19T04:40:39.501Z,22.30
2019-05-19T04:43:12.211Z,25.17
2019-05-19T04:45:44.671Z,23.63
2019-05-19T04:48:17.356Z,21.73
2019-05-19T04:50:50.650Z,23.00
2019-05-19T04:53:24.375Z,22.83
2019-05-19T04:55:57.340Z,23.57
2019-05-19T04:58:30.140Z,23.13
2019-05-19T05:01:02.752Z,26.37
2019-05-19T05:03:35.076Z,24.40
2019-05-19T05:06:07.696Z,23.60
2019-05-19T05:08:40.522Z,26.17
2019-05-19T05:11:13.356Z,24.67
2019-05-19T05:13:46.035Z,24.23
2019-05-19T05:16:18.600Z,22.53
2019-05-19T05:18:51.250Z,23.50
2019-05-19T05:21:23.820Z,23.97
2019-05-19T05:23:56.511Z,24.43
2019-05-19T05:26:29.250Z,23.97
2019-05-19T05:29:01.976Z,23.37
2019-05-19T05:31:35.991Z,25.07
2019-05-19T05:34:08.780Z,24.90
2019-05-19T05:36:41.477Z,24.37
2019-05-19T05:39:14.017Z,23.90
2019-05-19T05:41:46.786Z,23.53
2019-05-19T05:44:19.391Z,22.93
2019-05-19T05:46:52.311Z,24.10
2019-05-19T05:49:25.146Z,23.07
2019-05-19T05:51:57.940Z,23.13
2019-05-19T05:54:31.836Z,23.17
2019-05-19T05:57:04.565Z,25.50
2019-05-19T05:59:37.259Z,23.60
2019-05-19T06:02:10.080Z,23.50
2019-05-19T06:04:42.890Z,24.63
2019-05-19T06:07:15.570Z,26.57
2019-05-19T06:09:48.405Z,25.27
2019-05-19T06:12:21.195Z,23.53
2019-05-19T06:14:54.049Z,23.38
2019-05-19T06:17:27.158Z,24.43
2019-05-19T06:19:59.869Z,24.43
2019-05-19T06:22:33.716Z,24.23
2019-05-19T06:25:06.927Z,27.03
2019-05-19T06:27:39.750Z,25.65
2019-05-19T06:30:12.651Z,28.83
2019-05-19T06:32:47.030Z,26.53
2019-05-19T06:35:21.022Z,25.40
2019-05-19T06:37:53.832Z,26.43
2019-05-19T06:40:26.630Z,24.37
2019-05-19T06:42:59.220Z,24.60
2019-05-19T06:45:31.790Z,23.05
2019-05-19T06:48:04.619Z,23.60
2019-05-19T06:50:40.653Z,24.90
2019-05-19T06:53:14.331Z,23.73
2019-05-19T06:55:46.165Z,23.92
2019-05-19T06:58:19.076Z,22.40
2019-05-19T07:00:52.868Z,22.80
2019-05-19T07:03:25.735Z,25.17
2019-05-19T07:05:58.546Z,22.98
2019-05-19T07:08:31.300Z,18.50
2019-05-19T07:11:04.350Z,16.75
2019-05-19T07:13:37.548Z,18.42
2019-05-19T07:16:10.737Z,13.65
2019-05-19T07:18:44.125Z,10.95
2019-05-19T07:21:16.861Z,7.22
2019-05-19T07:23:49.885Z,5.25
2019-05-19T07:26:22.405Z,6.12
2019-05-19T07:28:58.509Z,7.58
2019-05-19T07:31:30.315Z,9.15
2019-05-19T07:34:03.298Z,9.80
2019-05-19T07:36:36.021Z,9.68
2019-05-19T07:39:09.883Z,34.63
2019-05-19T07:41:42.647Z,24.77
2019-05-19T07:44:15.770Z,16.50
2019-05-19T07:46:48.493Z,12.05
2019-05-19T07:49:21.285Z,8.63
2019-05-19T07:51:54.225Z,7.62
2019-05-19T07:54:27.355Z,7.22
2019-05-19T07:57:00.580Z,7.85
2019-05-19T07:59:33.596Z,7.47
2019-05-19T08:02:06.371Z,7.97
2019-05-19T08:04:39.078Z,7.60
2019-05-19T08:07:12.025Z,6.13
2019-05-19T08:09:45.161Z,7.47
2019-05-19T08:12:18.495Z,7.50
2019-05-19T08:14:51.590Z,8.10
2019-05-19T08:17:25.955Z,8.30
2019-05-19T08:19:59.575Z,8.93
2019-05-19T08:22:32.291Z,11.03
2019-05-19T08:25:09.308Z,10.03
2019-05-19T08:27:42.335Z,10.53
2019-05-19T08:30:16.072Z,10.53
2019-05-19T08:32:48.830Z,9.53
2019-05-19T08:35:21.810Z,9.28
2019-05-19T08:37:54.967Z,8.23
2019-05-19T08:40:27.731Z,7.78
2019-05-19T08:43:00.521Z,6.95
2019-05-19T08:45:33.586Z,7.90
2019-05-19T08:48:06.302Z,7.55
2019-05-19T08:50:39.116Z,7.47
2019-05-19T08:53:11.895Z,6.83
2019-05-19T08:55:45.439Z,7.55
2019-05-19T08:58:18.149Z,6.60
2019-05-19T09:00:51.121Z,7.30
2019-05-19T09:03:23.875Z,6.58
2019-05-19T09:05:56.514Z,7.47
